createdAt,value
2017-12-26T00:00:33.686Z,96449.17
2017-12-26T00:02:10.196Z,96461.63
2017-12-26T00:03:47.373Z,96455.64
2017-12-26T00:05:23.936Z,96463.03
2017-12-26T00:07:01.111Z,96472.53
2017-12-26T00:08:37.787Z,96451.64
2017-12-26T00:10:14.528Z,96518.84
2017-12-26T00:11:51.245Z,96507.09
2017-12-26T00:13:28.345Z,96430.88
2017-12-26T00:15:07.151Z,96411.47
2017-12-26T00:16:44.012Z,96305.96
2017-12-26T00:18:23.014Z,96373.48
2017-12-26T00:20:02.695Z,96448.28
2017-12-26T00:21:41.191Z,96393.77
2017-12-26T00:23:18.939Z,96312.55
2017-12-26T00:24:55.896Z,96315.10
2017-12-26T00:26:35.459Z,96289.22
2017-12-26T00:28:12.917Z,96329.77
2017-12-26T00:29:50.321Z,96363.88
2017-12-26T00:31:26.870Z,96389.44
2017-12-26T00:33:04.899Z,96379.95
2017-12-26T00:34:42.235Z,96469.12
2017-12-26T00:36:18.768Z,96454.78
2017-12-26T00:37:56.018Z,96371.31
2017-12-26T00:39:36.295Z,96337.55
2017-12-26T00:41:15.004Z,96190.27
2017-12-26T00:42:51.397Z,96091.96
2017-12-26T00:44:27.883Z,96167.42
2017-12-26T00:46:05.616Z,96081.59
2017-12-26T00:47:42.174Z,95993.09
2017-12-26T00:49:19.488Z,95844.28
2017-12-26T00:50:56.572Z,95803.01
2017-12-26T00:52:34.134Z,95668.62
2017-12-26T00:54:12.365Z,95604.62
2017-12-26T00:55:49.138Z,95574.06
2017-12-26T00:57:25.933Z,95583.45
2017-12-26T00:59:03.082Z,95603.27
2017-12-26T01:00:39.816Z,95605.46
2017-12-26T01:02:16.443Z,95611.47
2017-12-26T01:03:53.027Z,95594.63
2017-12-26T01:05:32.665Z,95588.75
2017-12-26T01:07:10.191Z,95634.63
2017-12-26T01:08:46.907Z,95687.60
2017-12-26T01:10:24.317Z,95707.42
2017-12-26T01:12:01.304Z,95702.64
2017-12-26T01:13:37.868Z,95746.52
2017-12-26T01:15:15.594Z,95749.91
2017-12-26T01:16:53.310Z,95728.09
2017-12-26T01:18:30.541Z,95788.34
2017-12-26T01:20:07.706Z,95873.20
2017-12-26T01:21:45.020Z,96038.30
2017-12-26T01:23:21.597Z,96129.37
2017-12-26T01:24:58.182Z,96083.17
2017-12-26T01:26:34.691Z,96100.84
2017-12-26T01:28:11.772Z,96251.03
2017-12-26T01:29:50.253Z,96365.61
2017-12-26T01:31:26.622Z,96418.33
2017-12-26T01:33:02.991Z,96428.66
2017-12-26T01:34:40.379Z,96425.69
2017-12-26T01:36:17.089Z,96438.62
2017-12-26T01:37:53.835Z,96370.42
2017-12-26T01:39:32.561Z,96346.65
2017-12-26T01:41:12.661Z,96350.91
2017-12-26T01:42:55.022Z,96384.25
2017-12-26T01:44:32.312Z,96269.66
2017-12-26T01:46:22.545Z,96266.68
2017-12-26T01:48:00.296Z,96422.28
2017-12-26T01:49:38.669Z,96392.07
2017-12-26T01:51:15.161Z,96233.48
2017-12-26T01:52:51.619Z,96209.78
2017-12-26T01:54:28.491Z,96379.53
2017-12-26T01:56:05.883Z,96485.51
2017-12-26T01:57:42.631Z,96438.66
2017-12-26T01:59:19.330Z,96444.75
2017-12-26T02:00:57.074Z,96394.55
2017-12-26T02:02:33.672Z,96374.25
2017-12-26T02:04:11.180Z,96384.67
2017-12-26T02:05:48.879Z,96364.00
2017-12-26T02:07:25.979Z,96445.69
2017-12-26T02:09:02.448Z,96443.55
2017-12-26T02:10:38.989Z,96310.81
2017-12-26T02:12:15.885Z,96348.86
2017-12-26T02:13:53.190Z,96374.25
2017-12-26T02:15:30.412Z,96517.52
2017-12-26T02:17:07.275Z,96628.72
2017-12-26T02:18:44.244Z,96446.48
2017-12-26T02:20:21.100Z,96451.21
2017-12-26T02:21:58.165Z,96482.83
2017-12-26T02:23:35.572Z,96603.63
2017-12-26T02:25:12.416Z,96673.86
2017-12-26T02:26:48.993Z,96730.98
2017-12-26T02:28:28.139Z,96740.02
2017-12-26T02:30:07.245Z,96709.24
2017-12-26T02:31:45.599Z,96689.42
2017-12-26T02:33:23.115Z,96761.33
2017-12-26T02:34:59.565Z,96812.80
2017-12-26T02:36:36.221Z,96859.64
2017-12-26T02:38:13.256Z,96870.94
2017-12-26T02:39:49.712Z,96882.12
2017-12-26T02:41:26.156Z,96859.13
2017-12-26T02:43:02.888Z,96838.35
2017-12-26T02:44:39.965Z,96817.63
2017-12-26T02:46:16.598Z,96841.03
2017-12-26T02:47:54.116Z,96834.12
2017-12-26T02:49:30.728Z,96851.41
2017-12-26T02:51:07.768Z,96890.05
2017-12-26T02:52:44.931Z,96903.14
2017-12-26T02:54:21.410Z,96783.88
2017-12-26T02:55:57.942Z,96735.45
2017-12-26T02:57:39.793Z,96732.77
2017-12-26T02:59:17.635Z,96672.24
2017-12-26T03:00:56.822Z,96823.67
2017-12-26T03:02:34.631Z,96911.34
2017-12-26T03:04:12.830Z,96681.71
2017-12-26T03:05:49.952Z,96532.29
2017-12-26T03:07:27.359Z,96493.00
2017-12-26T03:09:04.138Z,96550.52
2017-12-26T03:10:41.327Z,96611.89
2017-12-26T03:12:19.762Z,96554.39
2017-12-26T03:13:56.761Z,96486.41
2017-12-26T03:15:34.346Z,96473.85
2017-12-26T03:17:11.503Z,96471.33
2017-12-26T03:18:48.789Z,96525.82
2017-12-26T03:20:26.068Z,96481.21
2017-12-26T03:22:02.798Z,96431.47
2017-12-26T03:23:39.927Z,96426.20
2017-12-26T03:25:17.266Z,96556.98
2017-12-26T03:26:53.799Z,96566.02
2017-12-26T03:28:31.127Z,96569.00
2017-12-26T03:30:08.163Z,96556.94
2017-12-26T03:31:48.798Z,96535.73
2017-12-26T03:33:25.218Z,96531.35
2017-12-26T03:35:01.651Z,96500.66
2017-12-26T03:36:38.487Z,96496.83
2017-12-26T03:38:14.992Z,96510.70
2017-12-26T03:39:52.181Z,96501.98
2017-12-26T03:41:29.824Z,96601.06
2017-12-26T03:43:10.831Z,96611.89
2017-12-26T03:44:48.522Z,96621.94
2017-12-26T03:46:24.852Z,96598.08
2017-12-26T03:48:04.010Z,96704.21
2017-12-26T03:49:43.990Z,96742.78
2017-12-26T03:51:21.108Z,96907.88
2017-12-26T03:52:57.652Z,97021.98
2017-12-26T03:54:34.120Z,97039.83
2017-12-26T03:56:10.763Z,96954.31
2017-12-26T03:57:47.348Z,96924.00
2017-12-26T03:59:23.838Z,96879.80
2017-12-26T04:01:00.323Z,96738.81
2017-12-26T04:02:36.698Z,96754.94
2017-12-26T04:04:13.763Z,96895.41
2017-12-26T04:05:50.188Z,96995.05
2017-12-26T04:07:26.605Z,97067.20
2017-12-26T04:09:04.376Z,97038.08
2017-12-26T04:10:41.521Z,97037.69
2017-12-26T04:12:17.934Z,97026.38
2017-12-26T04:13:54.469Z,97046.80
2017-12-26T04:15:31.173Z,96919.61
2017-12-26T04:17:08.328Z,96826.78
2017-12-26T04:18:44.648Z,96940.56
2017-12-26T04:20:20.953Z,97019.89
2017-12-26T04:21:58.423Z,97055.03
2017-12-26T04:23:34.949Z,97005.11
2017-12-26T04:25:11.424Z,96977.36
2017-12-26T04:26:48.414Z,96994.70
2017-12-26T04:28:25.280Z,97025.98
2017-12-26T04:30:01.804Z,97047.69
2017-12-26T04:31:39.198Z,97052.50
2017-12-26T04:33:15.528Z,97012.53
2017-12-26T04:34:52.677Z,96998.54
2017-12-26T04:36:29.016Z,96969.63
2017-12-26T04:38:06.352Z,96945.72
2017-12-26T04:39:43.493Z,96919.27
2017-12-26T04:41:20.391Z,96882.29
2017-12-26T04:42:57.121Z,96881.39
2017-12-26T04:44:33.442Z,96890.63
2017-12-26T04:46:09.893Z,96931.86
2017-12-26T04:47:46.725Z,96961.81
2017-12-26T04:49:24.335Z,96973.01
2017-12-26T04:51:00.701Z,96987.42
2017-12-26T04:52:37.158Z,96987.66
2017-12-26T04:54:14.103Z,97030.34
2017-12-26T04:55:50.574Z,97052.04
2017-12-26T04:57:27.110Z,97062.81
2017-12-26T04:59:03.527Z,97078.91
2017-12-26T05:00:40.430Z,97096.34
2017-12-26T05:02:18.194Z,97136.25
2017-12-26T05:03:55.742Z,97144.53
2017-12-26T05:05:33.080Z,97185.39
2017-12-26T05:07:09.354Z,97182.43
2017-12-26T05:08:46.548Z,97174.92
2017-12-26T05:10:22.955Z,97165.42
2017-12-26T05:11:59.275Z,97183.98
2017-12-26T05:13:36.927Z,97214.89
2017-12-26T05:15:15.555Z,97257.09
2017-12-26T05:16:52.685Z,97253.55
2017-12-26T05:18:29.227Z,97256.23
2017-12-26T05:20:06.016Z,97232.33
2017-12-26T05:21:43.299Z,97222.83
2017-12-26T05:23:20.455Z,97233.69
2017-12-26T05:24:56.962Z,97226.29
2017-12-26T05:26:34.659Z,97263.66
2017-12-26T05:28:11.020Z,97275.34
2017-12-26T05:29:47.420Z,97304.94
2017-12-26T05:31:25.972Z,97326.20
2017-12-26T05:33:03.964Z,97347.09
2017-12-26T05:34:41.101Z,97371.94
2017-12-26T05:36:17.525Z,97395.39
2017-12-26T05:37:55.356Z,97402.87
2017-12-26T05:39:31.727Z,97444.66
2017-12-26T05:41:08.067Z,97492.09
2017-12-26T05:42:45.324Z,97530.03
2017-12-26T05:44:21.727Z,97545.67
2017-12-26T05:45:58.848Z,97560.89
2017-12-26T05:47:35.184Z,97537.80
2017-12-26T05:49:11.507Z,97541.73
2017-12-26T05:50:47.826Z,97576.20
2017-12-26T05:52:25.360Z,97560.50
2017-12-26T05:54:01.819Z,97535.19
2017-12-26T05:55:38.244Z,97509.91
2017-12-26T05:57:14.821Z,97511.28
2017-12-26T05:58:51.591Z,97526.09
2017-12-26T06:00:28.737Z,97552.80
2017-12-26T06:02:05.207Z,97559.64
2017-12-26T06:03:43.452Z,97597.51
2017-12-26T06:05:20.336Z,97586.20
2017-12-26T06:06:56.823Z,97569.19
2017-12-26T06:08:33.361Z,97553.48
2017-12-26T06:11:54.503Z,97524.77
2017-12-26T06:13:30.891Z,97520.83
2017-12-26T06:15:08.179Z,97509.95
2017-12-26T06:16:44.536Z,97485.52
2017-12-26T06:18:21.166Z,97522.12
2017-12-26T06:19:57.558Z,97477.28
2017-12-26T06:21:33.831Z,97526.09
2017-12-26T06:23:10.121Z,97491.67
2017-12-26T06:24:48.221Z,97504.41
2017-12-26T06:26:24.575Z,97478.64
2017-12-26T06:28:00.820Z,97490.06
2017-12-26T06:29:37.271Z,97390.80
2017-12-26T06:31:13.800Z,97427.23
2017-12-26T06:32:50.245Z,97436.78
2017-12-26T06:34:27.300Z,97483.01
2017-12-26T06:36:03.613Z,97410.23
2017-12-26T06:37:41.098Z,97371.20
2017-12-26T06:39:17.412Z,97354.17
2017-12-26T06:40:53.797Z,97372.45
2017-12-26T06:42:30.020Z,97416.44
2017-12-26T06:44:06.789Z,97351.56
2017-12-26T06:45:43.152Z,97429.09
2017-12-26T06:47:19.489Z,97517.79
2017-12-26T06:48:56.545Z,97574.42
2017-12-26T06:50:33.167Z,97628.06
2017-12-26T06:52:13.369Z,97576.17
2017-12-26T06:53:49.796Z,97577.50
2017-12-26T06:55:27.000Z,97519.08
2017-12-26T06:57:05.699Z,97480.72
2017-12-26T06:58:41.980Z,97429.45
2017-12-26T07:00:19.518Z,97465.77
2017-12-26T07:01:55.850Z,97519.58
2017-12-26T07:03:32.642Z,97530.06
2017-12-26T07:05:08.960Z,97341.20
2017-12-26T07:06:45.494Z,97391.69
2017-12-26T07:08:21.850Z,97297.23
2017-12-26T07:09:59.563Z,97245.95
2017-12-26T07:11:35.983Z,97322.07
2017-12-26T07:13:12.308Z,97367.58
2017-12-26T07:14:48.611Z,97263.74
2017-12-26T07:16:25.291Z,97084.36
2017-12-26T07:18:01.745Z,97080.34
2017-12-26T07:19:41.962Z,97136.01
2017-12-26T07:21:22.288Z,97171.66
2017-12-26T07:22:58.945Z,97114.30
2017-12-26T07:24:35.168Z,97037.84
2017-12-26T07:26:11.398Z,97122.94
2017-12-26T07:27:47.658Z,97142.55
2017-12-26T07:29:24.852Z,97187.64
2017-12-26T07:31:01.106Z,97279.32
2017-12-26T07:32:37.404Z,97298.52
2017-12-26T07:34:14.325Z,97342.02
2017-12-26T07:35:51.142Z,97267.28
2017-12-26T07:37:27.507Z,97197.72
2017-12-26T07:39:04.843Z,97141.11
2017-12-26T07:40:41.060Z,97155.97
2017-12-26T07:42:17.800Z,97082.56
2017-12-26T07:43:54.379Z,97150.33
2017-12-26T07:45:31.515Z,97134.22
2017-12-26T07:47:08.057Z,97025.64
2017-12-26T07:48:44.718Z,96977.09
2017-12-26T07:50:28.367Z,96966.67
2017-12-26T07:52:05.490Z,97063.98
2017-12-26T07:53:41.804Z,97158.14
2017-12-26T07:55:18.500Z,97024.75
2017-12-26T07:56:54.808Z,96913.40
2017-12-26T07:58:31.402Z,97052.23
2017-12-26T08:00:07.817Z,97150.33
2017-12-26T08:01:44.301Z,97216.29
2017-12-26T08:03:21.340Z,97149.47
2017-12-26T08:04:57.765Z,97084.70
2017-12-26T08:06:34.903Z,97128.08
2017-12-26T08:08:13.707Z,97150.21
2017-12-26T08:09:50.080Z,97156.86
2017-12-26T08:11:26.448Z,97208.05
2017-12-26T08:13:03.278Z,97197.69
2017-12-26T08:14:40.754Z,97205.08
2017-12-26T08:16:17.089Z,97193.75
2017-12-26T08:17:53.486Z,97176.40
2017-12-26T08:19:30.599Z,97042.20
2017-12-26T08:21:07.458Z,97141.22
2017-12-26T08:22:43.850Z,97064.41
2017-12-26T08:24:20.187Z,97130.88
2017-12-26T08:25:56.486Z,97210.69
2017-12-26T08:27:34.299Z,97206.40
2017-12-26T08:29:10.680Z,97135.63
2017-12-26T08:30:46.944Z,97059.58
2017-12-26T08:32:24.066Z,97004.92
2017-12-26T08:34:00.836Z,97085.72
2017-12-26T08:35:37.140Z,97159.94
2017-12-26T08:37:13.410Z,97133.45
2017-12-26T08:38:49.865Z,97026.69
2017-12-26T08:40:26.646Z,97010.09
2017-12-26T08:42:02.891Z,97062.66
2017-12-26T08:43:39.151Z,97166.08
2017-12-26T08:45:17.136Z,97226.87
2017-12-26T08:46:53.556Z,97202.13
2017-12-26T08:48:29.795Z,97264.78
2017-12-26T08:50:06.281Z,97244.20
2017-12-26T08:51:42.571Z,97275.58
2017-12-26T08:53:19.415Z,97186.91
2017-12-26T08:54:56.511Z,97031.00
2017-12-26T08:56:35.952Z,97053.63
2017-12-26T08:58:12.314Z,97158.66
2017-12-26T08:59:48.990Z,97199.05
2017-12-26T09:01:25.306Z,97202.52
2017-12-26T09:03:01.535Z,97219.13
2017-12-26T09:04:37.869Z,97216.37
2017-12-26T09:06:14.740Z,97240.77
2017-12-26T09:07:51.142Z,97229.05
2017-12-26T09:09:27.459Z,97274.38
2017-12-26T09:11:03.819Z,97218.59
2017-12-26T09:12:40.514Z,97270.08
2017-12-26T09:14:16.914Z,97389.16
2017-12-26T09:15:54.360Z,97382.21
2017-12-26T09:17:30.779Z,97411.72
2017-12-26T09:19:07.460Z,97410.47
2017-12-26T09:20:43.843Z,97357.01
2017-12-26T09:22:20.221Z,97407.86
2017-12-26T09:23:57.591Z,97365.16
2017-12-26T09:25:35.186Z,97341.66
2017-12-26T09:27:11.550Z,97316.03
2017-12-26T09:28:47.885Z,97339.06
2017-12-26T09:30:25.931Z,97249.49
2017-12-26T09:32:02.721Z,97187.87
2017-12-26T09:33:38.990Z,97139.59
2017-12-26T09:35:16.099Z,97136.13
2017-12-26T09:36:53.250Z,97140.48
2017-12-26T09:38:29.906Z,97142.16
2017-12-26T09:40:06.338Z,97187.48
2017-12-26T09:41:43.641Z,97250.03
2017-12-26T09:43:19.936Z,97303.45
2017-12-26T09:44:56.611Z,97294.73
2017-12-26T09:46:32.890Z,97322.11
2017-12-26T09:48:12.930Z,97273.48
2017-12-26T09:49:49.363Z,97291.77
2017-12-26T09:51:26.093Z,97287.41
2017-12-26T09:53:02.520Z,97362.20
2017-12-26T09:54:38.845Z,97353.47
2017-12-26T09:56:15.195Z,97270.51
2017-12-26T09:57:52.167Z,97248.78
2017-12-26T09:59:29.205Z,97359.55
2017-12-26T10:01:05.816Z,97407.07
2017-12-26T10:02:42.148Z,97437.86
2017-12-26T10:04:19.728Z,97412.61
2017-12-26T10:05:59.677Z,97399.20
2017-12-26T10:07:35.994Z,97406.60
2017-12-26T10:09:12.360Z,97397.41
2017-12-26T10:10:48.991Z,97403.10
2017-12-26T10:12:26.087Z,97396.55
2017-12-26T10:14:03.096Z,97416.66
2017-12-26T10:15:39.435Z,97414.44
2017-12-26T10:17:16.073Z,97399.20
2017-12-26T10:18:52.358Z,97439.27
2017-12-26T10:20:28.665Z,97442.30
2017-12-26T10:22:04.842Z,97443.62
2017-12-26T10:23:42.704Z,97411.36
2017-12-26T10:25:18.989Z,97391.38
2017-12-26T10:26:55.272Z,97359.55
2017-12-26T10:28:31.634Z,97365.66
2017-12-26T10:30:09.143Z,97273.94
2017-12-26T10:31:45.451Z,97284.41
2017-12-26T10:33:21.835Z,97345.25
2017-12-26T10:34:58.139Z,97408.83
2017-12-26T10:36:34.870Z,97423.98
2017-12-26T10:38:11.238Z,97494.14
2017-12-26T10:39:48.338Z,97450.14
2017-12-26T10:41:24.716Z,97449.70
2017-12-26T10:43:01.046Z,97470.56
2017-12-26T10:44:37.621Z,97436.58
2017-12-26T10:46:14.932Z,97390.95
2017-12-26T10:47:52.359Z,97420.56
2017-12-26T10:49:29.229Z,97518.52
2017-12-26T10:51:06.054Z,97582.52
2017-12-26T10:52:42.452Z,97599.02
2017-12-26T10:54:19.601Z,97573.42
2017-12-26T10:55:56.409Z,97521.98
2017-12-26T10:57:33.683Z,97540.74
2017-12-26T10:59:10.042Z,97522.02
2017-12-26T11:00:47.030Z,97525.92
2017-12-26T11:02:24.895Z,97588.20
2017-12-26T11:04:01.436Z,97654.45
2017-12-26T11:05:42.894Z,97605.14
2017-12-26T11:07:20.351Z,97671.52
2017-12-26T11:08:57.078Z,97663.66
2017-12-26T11:10:33.365Z,97566.84
2017-12-26T11:12:09.699Z,97582.95
2017-12-26T11:13:46.131Z,97529.83
2017-12-26T11:15:25.357Z,97539.06
2017-12-26T11:17:01.862Z,97645.36
2017-12-26T11:18:39.008Z,97709.55
2017-12-26T11:20:15.446Z,97705.58
2017-12-26T11:21:54.768Z,97737.72
2017-12-26T11:23:31.220Z,97819.33
2017-12-26T11:25:08.341Z,97873.45
2017-12-26T11:26:44.875Z,97773.09
2017-12-26T11:28:22.876Z,97632.65
2017-12-26T11:29:59.273Z,97619.22
2017-12-26T11:31:35.753Z,97700.78
2017-12-26T11:33:12.364Z,97791.84
2017-12-26T11:34:49.194Z,97818.88
2017-12-26T11:36:26.561Z,97844.65
2017-12-26T11:38:05.401Z,97680.25
2017-12-26T11:39:43.412Z,97645.36
2017-12-26T11:41:20.575Z,97646.30
2017-12-26T11:42:57.784Z,97585.17
2017-12-26T11:44:34.226Z,97605.61
2017-12-26T11:46:10.718Z,97417.02
2017-12-26T11:47:48.217Z,97282.31
2017-12-26T11:49:24.541Z,97197.99
2017-12-26T11:51:01.700Z,97349.30
2017-12-26T11:52:38.487Z,97436.19
2017-12-26T11:54:17.898Z,97368.81
2017-12-26T11:55:54.282Z,97398.81
2017-12-26T11:57:31.548Z,97446.74
2017-12-26T11:59:08.878Z,97453.22
2017-12-26T12:00:45.812Z,97479.80
2017-12-26T12:02:25.423Z,97474.50
2017-12-26T12:04:01.972Z,97510.68
2017-12-26T12:05:38.782Z,97344.42
2017-12-26T12:07:16.712Z,97333.95
2017-12-26T12:08:53.947Z,97471.89
2017-12-26T12:10:30.348Z,97542.96
2017-12-26T12:12:07.030Z,97610.45
2017-12-26T12:13:44.024Z,97690.70
2017-12-26T12:15:21.549Z,97766.06
2017-12-26T12:17:00.581Z,97752.55
2017-12-26T12:18:37.344Z,97717.66
2017-12-26T12:20:15.207Z,97623.91
2017-12-26T12:21:51.873Z,97583.34
2017-12-26T12:23:28.490Z,97521.63
2017-12-26T12:25:06.489Z,97589.53
2017-12-26T12:26:44.636Z,97610.38
2017-12-26T12:28:21.210Z,97700.31
2017-12-26T12:29:57.775Z,97732.98
2017-12-26T12:31:34.398Z,97729.52
2017-12-26T12:33:12.517Z,97682.39
2017-12-26T12:34:49.072Z,97682.90
2017-12-26T12:36:26.912Z,97717.33
2017-12-26T12:38:03.819Z,97838.52
2017-12-26T12:39:40.792Z,97818.41
2017-12-26T12:41:17.400Z,97835.61
2017-12-26T12:42:54.938Z,97896.11
2017-12-26T12:44:32.456Z,97884.78
2017-12-26T12:46:10.269Z,97758.28
2017-12-26T12:47:47.310Z,97789.62
2017-12-26T12:49:24.061Z,97823.74
2017-12-26T12:51:00.357Z,97846.38
2017-12-26T12:52:37.054Z,97859.92
2017-12-26T12:54:13.750Z,97876.03
2017-12-26T12:55:52.432Z,97735.17
2017-12-26T12:57:30.038Z,97780.58
2017-12-26T12:59:06.989Z,97755.63
2017-12-26T13:00:43.589Z,97803.56
2017-12-26T13:02:23.155Z,97809.27
2017-12-26T13:04:00.043Z,97763.91
2017-12-26T13:05:37.253Z,97775.78
2017-12-26T13:07:14.020Z,97794.02
2017-12-26T13:08:52.488Z,97740.44
2017-12-26T13:10:29.911Z,97727.36
2017-12-26T13:12:07.142Z,97692.50
2017-12-26T13:13:44.903Z,97637.55
2017-12-26T13:15:22.240Z,97630.89
2017-12-26T13:17:03.973Z,97709.55
2017-12-26T13:18:40.979Z,97738.25
2017-12-26T13:20:17.493Z,97783.56
2017-12-26T13:21:55.306Z,97759.61
2017-12-26T13:23:32.125Z,97731.70
2017-12-26T13:25:10.296Z,97801.48
2017-12-26T13:26:47.308Z,97667.17
2017-12-26T13:28:25.792Z,97753.70
2017-12-26T13:30:03.628Z,97753.48
2017-12-26T13:31:41.771Z,97787.53
2017-12-26T13:33:19.161Z,97849.92
2017-12-26T13:34:56.792Z,97795.39
2017-12-26T13:36:34.265Z,97775.74
2017-12-26T13:38:11.278Z,97659.37
2017-12-26T13:39:48.418Z,97724.31
2017-12-26T13:41:25.109Z,97731.73
2017-12-26T13:43:02.609Z,97645.86
2017-12-26T13:44:39.585Z,97621.87
2017-12-26T13:46:17.583Z,97740.48
2017-12-26T13:47:55.215Z,97755.24
2017-12-26T13:49:32.848Z,97783.20
2017-12-26T13:51:10.339Z,97667.67
2017-12-26T13:52:47.361Z,97759.65
2017-12-26T13:54:25.306Z,97741.77
2017-12-26T13:56:02.666Z,97718.69
2017-12-26T13:57:40.692Z,97799.33
2017-12-26T13:59:17.134Z,97736.03
2017-12-26T14:00:53.595Z,97679.82
2017-12-26T14:02:32.059Z,97612.62
2017-12-26T14:04:14.152Z,97662.45
2017-12-26T14:05:51.327Z,97674.59
2017-12-26T14:07:28.456Z,97503.81
2017-12-26T14:09:06.268Z,97632.69
2017-12-26T14:10:43.386Z,97679.42
2017-12-26T14:12:19.965Z,97687.27
2017-12-26T14:13:56.716Z,97729.55
2017-12-26T14:15:35.027Z,97697.23
2017-12-26T14:17:12.039Z,97707.77
2017-12-26T14:18:49.024Z,97671.15
2017-12-26T14:20:26.711Z,97764.45
2017-12-26T14:22:03.844Z,97793.16
2017-12-26T14:23:41.549Z,97879.58
2017-12-26T14:25:18.927Z,97926.28
2017-12-26T14:26:56.006Z,97835.54
2017-12-26T14:28:32.813Z,97809.80
2017-12-26T14:30:12.843Z,97845.58
2017-12-26T14:31:51.368Z,97850.39
2017-12-26T14:33:28.209Z,97879.08
2017-12-26T14:35:06.814Z,97846.88
2017-12-26T14:36:43.945Z,97844.19
2017-12-26T14:38:21.353Z,97706.91
2017-12-26T14:39:58.888Z,97682.90
2017-12-26T14:41:36.184Z,97538.20
2017-12-26T14:43:13.194Z,97572.64
2017-12-26T14:44:50.755Z,97707.33
2017-12-26T14:46:27.441Z,97798.44
2017-12-26T14:48:04.278Z,97891.81
2017-12-26T14:49:42.349Z,97921.44
2017-12-26T14:51:18.712Z,97912.72
2017-12-26T14:52:55.961Z,97929.26
2017-12-26T14:56:23.341Z,97833.78
2017-12-26T14:57:59.851Z,97864.73
2017-12-26T14:59:37.157Z,97804.53
2017-12-26T15:01:14.044Z,97779.65
2017-12-26T15:02:50.433Z,97760.44
2017-12-26T15:04:26.895Z,97705.61
2017-12-26T15:06:03.375Z,97696.44
2017-12-26T15:07:40.304Z,97653.16
2017-12-26T15:09:16.840Z,97652.45
2017-12-26T15:10:54.447Z,97716.54
2017-12-26T15:12:30.985Z,97774.02
2017-12-26T15:14:07.908Z,97728.58
2017-12-26T15:15:44.476Z,97653.67
2017-12-26T15:17:21.033Z,97747.00
2017-12-26T15:18:57.405Z,97832.92
2017-12-26T15:20:34.351Z,97867.34
2017-12-26T15:22:14.716Z,97789.62
2017-12-26T15:23:51.336Z,97761.34
2017-12-26T15:25:27.841Z,97777.42
2017-12-26T15:27:05.595Z,97671.15
2017-12-26T15:28:45.952Z,97687.20
2017-12-26T15:30:24.439Z,97659.69
2017-12-26T15:32:00.877Z,97682.83
2017-12-26T15:33:37.966Z,97675.87
2017-12-26T15:35:14.436Z,97627.34
2017-12-26T15:36:50.918Z,97656.67
2017-12-26T15:38:27.343Z,97673.27
2017-12-26T15:40:04.866Z,97632.69
2017-12-26T15:41:41.738Z,97621.73
2017-12-26T15:43:18.338Z,97593.91
2017-12-26T15:44:54.783Z,97605.18
2017-12-26T15:46:31.758Z,97619.50
2017-12-26T15:48:16.401Z,97569.05
2017-12-26T15:49:53.728Z,97615.67
2017-12-26T15:51:31.105Z,97556.46
2017-12-26T15:53:08.835Z,97572.92
2017-12-26T15:54:46.032Z,97649.70
2017-12-26T15:56:24.582Z,97605.11
2017-12-26T15:58:01.837Z,97687.23
2017-12-26T15:59:38.889Z,97696.30
2017-12-26T16:01:15.489Z,97666.70
2017-12-26T16:02:51.939Z,97719.12
2017-12-26T16:06:11.002Z,97718.55
2017-12-26T16:07:47.571Z,97691.50
2017-12-26T16:09:24.084Z,97661.02
2017-12-26T16:11:00.712Z,97651.45
2017-12-26T16:12:37.778Z,97583.30
2017-12-26T16:14:14.331Z,97491.89
2017-12-26T16:15:53.551Z,97461.88
2017-12-26T16:17:34.465Z,97410.94
2017-12-26T16:19:11.669Z,97361.69
2017-12-26T16:20:48.492Z,97309.14
2017-12-26T16:22:25.187Z,97309.64
2017-12-26T16:24:07.074Z,97336.56
2017-12-26T16:25:44.688Z,97307.42
2017-12-26T16:27:21.335Z,97355.69
2017-12-26T16:28:57.983Z,97385.65
2017-12-26T16:30:34.541Z,97309.14
2017-12-26T16:32:15.879Z,97295.98
2017-12-26T16:33:52.291Z,97305.67
2017-12-26T16:35:28.614Z,97291.77
2017-12-26T16:37:05.157Z,97283.01
2017-12-26T16:38:42.997Z,97228.28
2017-12-26T16:40:19.645Z,97188.27
2017-12-26T16:41:57.148Z,97215.66
2017-12-26T16:43:33.645Z,97259.06
2017-12-26T16:45:10.441Z,97334.41
2017-12-26T16:46:49.818Z,97385.65
2017-12-26T16:48:27.454Z,97429.17
2017-12-26T16:50:04.112Z,97435.72
2017-12-26T16:51:41.045Z,97400.48
2017-12-26T16:53:17.564Z,97501.41
2017-12-26T16:54:55.528Z,97528.39
2017-12-26T16:56:32.288Z,97607.29
2017-12-26T16:58:09.673Z,97594.58
2017-12-26T16:59:47.089Z,97605.97
2017-12-26T17:01:23.467Z,97532.75
2017-12-26T17:03:04.825Z,97586.27
2017-12-26T17:04:41.823Z,97587.13
2017-12-26T17:06:19.849Z,97556.70
2017-12-26T17:07:57.091Z,97473.06
2017-12-26T17:09:33.686Z,97539.34
2017-12-26T17:11:11.120Z,97521.38
2017-12-26T17:12:50.334Z,97518.44
2017-12-26T17:14:28.927Z,97486.13
2017-12-26T17:16:06.265Z,97463.08
2017-12-26T17:17:44.523Z,97459.66
2017-12-26T17:19:25.048Z,97479.19
2017-12-26T17:21:02.168Z,97476.61
2017-12-26T17:22:39.252Z,97500.55
2017-12-26T17:24:28.053Z,97491.74
2017-12-26T17:26:05.342Z,97409.14
2017-12-26T17:27:42.313Z,97461.30
2017-12-26T17:29:31.120Z,97493.60
2017-12-26T17:31:10.398Z,97485.27
2017-12-26T17:32:46.969Z,97481.37
2017-12-26T17:34:24.430Z,97442.66
2017-12-26T17:36:02.391Z,97450.84
2017-12-26T17:37:42.053Z,97394.30
2017-12-26T17:39:19.476Z,97390.40
2017-12-26T17:40:56.254Z,97391.22
2017-12-26T17:42:34.412Z,97400.34
2017-12-26T17:44:12.789Z,97456.97
2017-12-26T17:45:51.488Z,97478.64
2017-12-26T17:47:29.880Z,97465.23
2017-12-26T17:49:11.638Z,97474.35
2017-12-26T17:50:52.461Z,97402.13
2017-12-26T17:52:29.667Z,97363.02
2017-12-26T17:54:07.398Z,97468.77
2017-12-26T17:55:51.249Z,97543.17
2017-12-26T17:57:28.906Z,97554.95
2017-12-26T17:59:07.129Z,97538.84
2017-12-26T18:00:44.994Z,97502.19
2017-12-26T18:02:21.829Z,97418.22
2017-12-26T18:04:00.460Z,97381.64
2017-12-26T18:05:42.011Z,97356.39
2017-12-26T18:07:19.529Z,97352.45
2017-12-26T18:08:58.035Z,97355.06
2017-12-26T18:10:37.114Z,97376.92
2017-12-26T18:12:14.881Z,97358.19
2017-12-26T18:13:51.742Z,97324.25
2017-12-26T18:15:28.865Z,97336.45
2017-12-26T18:17:06.555Z,97340.34
2017-12-26T18:18:44.843Z,97367.73
2017-12-26T18:20:22.441Z,97340.27
2017-12-26T18:22:00.358Z,97337.77
2017-12-26T18:23:37.490Z,97302.52
2017-12-26T18:25:14.405Z,97336.41
2017-12-26T18:26:52.117Z,97363.36
2017-12-26T18:30:13.113Z,97436.93
2017-12-26T18:31:52.830Z,97464.69
2017-12-26T18:33:31.531Z,97472.52
2017-12-26T18:35:10.150Z,97500.39
2017-12-26T18:36:47.994Z,97493.03
2017-12-26T18:38:24.719Z,97530.06
2017-12-26T18:40:02.292Z,97516.15
2017-12-26T18:41:40.376Z,97498.25
2017-12-26T18:43:17.436Z,97470.81
2017-12-26T18:44:54.971Z,97475.17
2017-12-26T18:46:32.241Z,97421.66
2017-12-26T18:48:09.286Z,97390.33
2017-12-26T18:49:48.190Z,97433.46
2017-12-26T18:51:26.507Z,97385.53
2017-12-26T18:53:03.384Z,97360.33
2017-12-26T18:54:41.527Z,97314.25
2017-12-26T18:56:19.498Z,97272.89
2017-12-26T18:57:58.098Z,97248.17
2017-12-26T18:59:40.324Z,97133.79
2017-12-26T19:01:19.270Z,97119.55
2017-12-26T19:03:02.581Z,97122.98
2017-12-26T19:04:40.165Z,97104.23
2017-12-26T19:06:17.833Z,97096.84
2017-12-26T19:07:55.085Z,97130.80
2017-12-26T19:09:33.037Z,97132.51